Time;durP1;ratioP1;P1;durP2;ratioP2;P2;SDS_P1;SDS_P2;PMS_P1;PMS_P2;Temp;Humidity;BMP_temperature;BMP_pressure;BME280_temperature;BME280_humidity;BME280_pressure;Samples;Min_cycle;Max_cycle;Signal;HPM_P1;HPM_P2
2022/09/06 00:02:01;;;;;;;6.53;3.65;;;20.50;92.30;;;;;;5055519;28;20025;-68
2022/09/06 00:04:26;;;;;;;5.38;4.00;;;20.50;92.40;;;;;;5055520;28;20021;-68
2022/09/06 00:06:52;;;;;;;4.85;4.22;;;20.50;92.00;;;;;;5055898;28;20404;-67
2022/09/06 00:09:18;;;;;;;5.00;3.67;;;20.50;92.20;;;;;;5055876;28;20104;-68
2022/09/06 00:11:43;;;;;;;6.35;3.97;;;20.50;92.50;;;;;;5055335;28;20129;-68
2022/09/06 00:14:09;;;;;;;3.92;3.53;;;20.40;92.40;;;;;;5055718;28;20044;-68
2022/09/06 00:16:34;;;;;;;5.45;3.83;;;20.40;93.00;;;;;;5055382;28;20057;-68
2022/09/06 00:19:00;;;;;;;5.90;3.90;;;20.40;92.60;;;;;;5055487;28;20036;-68
2022/09/06 00:21:29;;;;;;;5.43;3.83;;;20.40;92.70;;;;;;5055310;28;20426;-68
2022/09/06 00:23:55;;;;;;;4.45;3.55;;;20.40;92.90;;;;;;5055558;28;20036;-68
2022/09/06 00:26:21;;;;;;;4.65;3.63;;;20.30;93.10;;;;;;5055324;28;20556;-69
2022/09/06 00:28:47;;;;;;;7.95;3.92;;;20.30;93.30;;;;;;5055818;28;20074;-68
2022/09/06 00:31:15;;;;;;;8.63;3.90;;;20.30;93.40;;;;;;5055177;28;20057;-68
2022/09/06 00:33:41;;;;;;;6.60;3.78;;;20.30;93.70;;;;;;5054909;28;20250;-68
2022/09/06 00:36:07;;;;;;;5.65;4.00;;;20.20;93.90;;;;;;5055485;28;20489;-68
2022/09/06 00:38:33;;;;;;;6.60;3.85;;;20.20;94.00;;;;;;5054834;28;20028;-67
2022/09/06 00:40:59;;;;;;;9.57;4.03;;;20.20;94.00;;;;;;5055286;28;20048;-67
2022/09/06 00:43:25;;;;;;;6.30;3.25;;;20.20;94.10;;;;;;5055171;28;20025;-68
2022/09/06 00:45:52;;;;;;;5.90;3.83;;;20.20;94.00;;;;;;5054545;28;20353;-68
2022/09/06 00:48:18;;;;;;;6.68;3.90;;;20.10;94.40;;;;;;5055174;28;20039;-67
2022/09/06 00:50:47;;;;;;;6.10;4.38;;;20.10;94.70;;;;;;5054402;28;20029;-68
2022/09/06 00:53:13;;;;;;;7.22;4.10;;;20.10;94.60;;;;;;5054785;28;20016;-68
2022/09/06 00:55:41;;;;;;;6.05;3.83;;;20.10;94.90;;;;;;5054580;28;20032;-68
2022/09/06 00:58:08;;;;;;;4.80;3.97;;;20.00;94.90;;;;;;5054973;28;20025;-69
2022/09/06 01:00:33;;;;;;;5.32;3.30;;;20.00;95.10;;;;;;5054500;28;20033;-68
2022/09/06 01:02:59;;;;;;;5.25;3.90;;;20.00;95.20;;;;;;5054902;28;20031;-68
2022/09/06 01:05:33;;;;;;;5.75;4.18;;;20.00;95.30;;;;;;5054417;28;20021;-69
2022/09/06 01:08:14;;;;;;;5.82;3.80;;;20.00;95.10;;;;;;5054887;28;20028;-68
2022/09/06 01:11:06;;;;;;;5.75;4.03;;;20.00;95.30;;;;;;5054453;28;20077;-68
2022/09/06 01:14:00;;;;;;;6.00;4.07;;;20.00;95.40;;;;;;5054273;28;20025;-68
2022/09/06 01:16:38;;;;;;;5.03;3.88;;;20.00;95.60;;;;;;5053207;28;20037;-69
2022/09/06 01:19:13;;;;;;;6.22;4.28;;;20.00;95.60;;;;;;5054649;28;20024;-67
2022/09/06 01:21:54;;;;;;;5.75;3.65;;;19.90;95.90;;;;;;5054239;28;20454;-67
2022/09/06 01:24:57;;;;;;;5.53;3.67;;;19.80;95.90;;;;;;5054539;28;20111;-69
2022/09/06 01:27:41;;;;;;;5.35;4.20;;;19.80;96.10;;;;;;5054490;28;20035;-67
2022/09/06 01:30:09;;;;;;;5.78;4.43;;;19.80;96.40;;;;;;5054278;28;20052;-67
2022/09/06 01:32:55;;;;;;;4.47;3.65;;;19.80;96.20;;;;;;5054187;28;20040;-68
2022/09/06 01:35:50;;;;;;;6.80;3.90;;;19.70;96.40;;;;;;5054248;28;20539;-67
2022/09/06 01:38:16;;;;;;;7.03;4.97;;;19.70;96.50;;;;;;5054136;28;20037;-67
2022/09/06 01:40:42;;;;;;;5.10;4.03;;;19.70;96.50;;;;;;5053626;28;20031;-67
2022/09/06 01:43:12;;;;;;;7.60;4.30;;;19.70;96.30;;;;;;5053793;28;20108;-67
2022/09/06 01:46:11;;;;;;;8.33;3.97;;;19.60;96.60;;;;;;5053706;28;20032;-67
2022/09/06 01:49:00;;;;;;;4.80;3.85;;;19.60;96.40;;;;;;5053591;28;20028;-68
2022/09/06 01:51:55;;;;;;;5.78;3.60;;;19.60;96.70;;;;;;5054007;28;20025;-67
2022/09/06 01:54:29;;;;;;;5.05;4.05;;;19.50;97.10;;;;;;5053776;28;20033;-68
2022/09/06 01:57:08;;;;;;;7.50;3.92;;;19.50;97.20;;;;;;5053870;28;20063;-68
2022/09/06 01:59:46;;;;;;;7.45;4.15;;;19.50;97.10;;;;;;5053513;28;20215;-67
2022/09/06 02:02:44;;;;;;;6.05;4.00;;;19.50;97.20;;;;;;5053887;28;20377;-68
2022/09/06 02:05:45;;;;;;;4.05;3.65;;;19.50;97.20;;;;;;5053875;28;20473;-67
2022/09/06 02:08:34;;;;;;;5.32;4.22;;;19.50;97.00;;;;;;5052263;28;20041;-67
2022/09/06 02:11:02;;;;;;;5.32;3.97;;;19.40;97.40;;;;;;5053351;28;20108;-67
2022/09/06 02:13:51;;;;;;;9.90;4.45;;;19.50;96.90;;;;;;5053385;28;20035;-68
2022/09/06 02:16:21;;;;;;;4.60;3.60;;;19.50;96.90;;;;;;5053587;28;20044;-67
2022/09/06 02:18:55;;;;;;;4.90;3.78;;;19.40;97.20;;;;;;5053105;28;20052;-67
2022/09/06 02:21:28;;;;;;;5.43;3.88;;;19.30;97.70;;;;;;5053439;28;20047;-67
2022/09/06 02:23:56;;;;;;;6.35;4.47;;;19.30;97.70;;;;;;5053106;28;20032;-67
2022/09/06 02:26:25;;;;;;;13.38;4.20;;;19.30;97.80;;;;;;5053529;28;20112;-67
2022/09/06 02:28:52;;;;;;;5.25;3.88;;;19.20;98.10;;;;;;5053082;28;20025;-67
2022/09/06 02:31:20;;;;;;;5.53;4.10;;;19.30;98.40;;;;;;5052603;28;20041;-67
2022/09/06 02:33:47;;;;;;;5.05;4.25;;;19.30;97.70;;;;;;5052397;28;20470;-68
2022/09/06 02:36:14;;;;;;;6.40;4.63;;;19.30;97.70;;;;;;5053028;28;20040;-67
2022/09/06 02:38:42;;;;;;;6.38;4.47;;;19.30;98.10;;;;;;5052622;28;20079;-67
2022/09/06 02:41:08;;;;;;;5.57;4.35;;;19.20;97.50;;;;;;5053048;28;20067;-69
2022/09/06 02:43:34;;;;;;;8.48;4.70;;;19.20;97.80;;;;;;5052305;28;20060;-69
2022/09/06 02:46:00;;;;;;;5.45;4.28;;;19.20;97.80;;;;;;5052434;28;20475;-68
2022/09/06 02:48:26;;;;;;;6.55;4.78;;;19.20;98.00;;;;;;5052755;28;20104;-68
2022/09/06 02:50:51;;;;;;;5.28;4.28;;;19.20;98.40;;;;;;5052610;28;20060;-68
2022/09/06 02:53:18;;;;;;;4.97;4.07;;;19.20;97.90;;;;;;5052882;28;20074;-68
2022/09/06 02:55:47;;;;;;;7.00;4.38;;;19.20;97.80;;;;;;5052356;28;20080;-66
2022/09/06 02:58:14;;;;;;;6.50;4.32;;;19.20;97.60;;;;;;5052505;28;20075;-68
2022/09/06 03:00:40;;;;;;;6.65;4.90;;;19.20;97.70;;;;;;5052514;28;20382;-69
2022/09/06 03:03:06;;;;;;;5.75;4.05;;;19.10;97.80;;;;;;5052764;28;20025;-68
2022/09/06 03:05:32;;;;;;;5.97;4.13;;;19.10;97.80;;;;;;5051578;28;20040;-68
2022/09/06 03:07:58;;;;;;;7.80;4.85;;;19.10;97.90;;;;;;5052599;28;20037;-68
2022/09/06 03:10:25;;;;;;;6.45;4.65;;;19.00;97.70;;;;;;5052509;28;20033;-67
2022/09/06 03:12:51;;;;;;;7.68;4.72;;;19.00;98.20;;;;;;5052114;28;20040;-68
2022/09/06 03:15:17;;;;;;;6.63;4.78;;;19.00;98.10;;;;;;5052000;28;20032;-68
2022/09/06 03:17:43;;;;;;;5.82;4.82;;;18.90;98.40;;;;;;5052069;28;20036;-68
2022/09/06 03:20:10;;;;;;;9.57;5.53;;;18.90;98.70;;;;;;5052613;28;20060;-68
2022/09/06 03:22:40;;;;;;;6.28;4.55;;;18.90;98.70;;;;;;5052125;28;20025;-68
2022/09/06 03:25:07;;;;;;;6.15;4.15;;;18.70;99.00;;;;;;5052510;28;20051;-68
2022/09/06 03:27:33;;;;;;;9.55;4.90;;;18.80;99.50;;;;;;5052523;28;20021;-68
2022/09/06 03:29:59;;;;;;;8.05;5.20;;;18.80;98.90;;;;;;5052423;28;20060;-68
2022/09/06 03:32:24;;;;;;;8.07;4.90;;;18.80;98.90;;;;;;5052569;28;20116;-67
2022/09/06 03:34:50;;;;;;;5.72;4.55;;;18.80;99.30;;;;;;5051884;28;20474;-68
2022/09/06 03:37:18;;;;;;;6.20;4.78;;;18.70;99.20;;;;;;5052424;28;20135;-67
2022/09/06 03:39:43;;;;;;;5.55;5.00;;;18.70;99.40;;;;;;5051765;28;20605;-67
2022/09/06 03:42:09;;;;;;;8.05;5.28;;;18.70;99.70;;;;;;5052049;28;20029;-67
2022/09/06 03:44:35;;;;;;;8.35;5.60;;;18.60;99.90;;;;;;5052343;28;20056;-70
2022/09/06 03:47:01;;;;;;;6.03;4.57;;;18.50;99.90;;;;;;5052344;28;20032;-68
2022/09/06 03:49:26;;;;;;;9.13;4.95;;;18.50;99.90;;;;;;5052230;28;20028;-68
2022/09/06 03:51:52;;;;;;;7.75;4.90;;;18.60;99.90;;;;;;5051884;28;20031;-68
2022/09/06 03:54:17;;;;;;;7.28;5.22;;;18.60;99.90;;;;;;5052149;28;20033;-67
2022/09/06 03:56:43;;;;;;;7.20;5.00;;;18.60;99.80;;;;;;5051726;28;20120;-69
2022/09/06 03:59:09;;;;;;;7.82;4.75;;;18.60;99.70;;;;;;5052190;28;20048;-69
2022/09/06 04:01:34;;;;;;;7.57;5.18;;;18.60;99.90;;;;;;5051831;28;20470;-67
2022/09/06 04:04:00;;;;;;;6.78;4.63;;;18.60;99.80;;;;;;5050014;28;20043;-68
2022/09/06 04:06:26;;;;;;;8.30;5.10;;;18.60;99.80;;;;;;5052086;28;20033;-68
2022/09/06 04:08:52;;;;;;;6.78;4.97;;;18.60;99.60;;;;;;5051646;28;20465;-69
2022/09/06 04:11:18;;;;;;;8.75;5.20;;;18.60;99.70;;;;;;5052149;28;20018;-68
2022/09/06 04:13:44;;;;;;;11.07;5.18;;;18.50;99.90;;;;;;5051973;28;20033;-68
2022/09/06 04:16:09;;;;;;;6.35;4.93;;;18.50;99.90;;;;;;5053715;28;20028;-67
2022/09/06 04:18:35;;;;;;;5.63;4.85;;;18.40;99.90;;;;;;5056219;28;20071;-68
2022/09/06 04:21:01;;;;;;;6.78;4.57;;;18.40;99.90;;;;;;5056528;28;20025;-69
2022/09/06 04:23:28;;;;;;;7.32;4.93;;;18.40;99.90;;;;;;5057458;28;20481;-69
2022/09/06 04:25:55;;;;;;;7.97;4.95;;;18.40;99.90;;;;;;5057553;28;20104;-69
2022/09/06 04:28:22;;;;;;;7.40;4.97;;;18.40;99.90;;;;;;5056375;28;20035;-69
2022/09/06 04:31:01;;;;;;;6.13;4.50;;;18.40;99.90;;;;;;5055303;28;20132;-69
2022/09/06 04:33:28;;;;;;;7.25;4.90;;;18.50;99.90;;;;;;5055708;28;20037;-69
2022/09/06 04:35:58;;;;;;;8.02;4.60;;;18.50;99.80;;;;;;5053512;28;20450;-69
2022/09/06 04:38:27;;;;;;;6.07;4.45;;;18.50;99.70;;;;;;5055042;28;20485;-68
2022/09/06 04:40:56;;;;;;;6.57;5.45;;;18.60;99.80;;;;;;5054222;28;20108;-68
2022/09/06 04:43:22;;;;;;;5.13;4.60;;;18.60;99.40;;;;;;5055390;28;20025;-68
2022/09/06 04:45:48;;;;;;;6.32;4.35;;;18.70;99.30;;;;;;5054399;28;20033;-69
2022/09/06 04:48:14;;;;;;;6.40;4.93;;;18.60;99.10;;;;;;5054863;28;20032;-69
2022/09/06 04:50:40;;;;;;;9.00;5.10;;;18.60;98.90;;;;;;5054741;28;20057;-69
2022/09/06 04:53:05;;;;;;;6.65;4.72;;;18.70;98.70;;;;;;5054509;28;20057;-68
2022/09/06 04:55:32;;;;;;;9.88;4.93;;;18.70;98.60;;;;;;5054981;28;20433;-68
2022/09/06 04:57:59;;;;;;;6.15;4.60;;;18.80;98.40;;;;;;5054606;28;20028;-68
2022/09/06 05:00:26;;;;;;;6.80;4.53;;;18.80;98.30;;;;;;5054910;28;20417;-68
2022/09/06 05:02:51;;;;;;;6.80;4.78;;;18.80;98.10;;;;;;5054382;28;20060;-68
2022/09/06 05:05:17;;;;;;;7.80;5.55;;;18.80;98.10;;;;;;5054431;28;20064;-67
2022/09/06 05:07:43;;;;;;;7.28;4.95;;;18.80;98.00;;;;;;5054060;28;20064;-68
2022/09/06 05:10:08;;;;;;;8.02;4.97;;;18.90;98.10;;;;;;5055097;28;20025;-68
2022/09/06 05:12:34;;;;;;;11.02;5.47;;;18.80;98.10;;;;;;5054856;28;20029;-68
2022/09/06 05:15:00;;;;;;;8.60;5.22;;;18.90;97.90;;;;;;5053704;28;20041;-68
2022/09/06 05:17:25;;;;;;;5.50;4.57;;;18.90;97.90;;;;;;5054865;28;20047;-68
2022/09/06 05:19:51;;;;;;;8.50;4.97;;;18.90;97.70;;;;;;5054210;28;20068;-69
2022/09/06 05:22:17;;;;;;;7.00;4.88;;;18.90;97.60;;;;;;5054641;28;20446;-68
2022/09/06 05:24:42;;;;;;;8.15;4.82;;;19.00;97.80;;;;;;5053553;28;20040;-69
2022/09/06 05:27:08;;;;;;;6.35;4.57;;;18.90;97.70;;;;;;5053516;28;20024;-68
2022/09/06 05:29:34;;;;;;;6.15;5.25;;;19.00;97.80;;;;;;5053930;28;20029;-68
2022/09/06 05:31:59;;;;;;;7.10;5.00;;;19.00;97.40;;;;;;5054249;28;20021;-68
2022/09/06 05:34:25;;;;;;;5.60;4.75;;;19.00;97.80;;;;;;5054169;28;20043;-68
2022/09/06 05:36:51;;;;;;;7.88;4.82;;;19.00;97.60;;;;;;5053802;28;20023;-67
2022/09/06 05:39:20;;;;;;;6.53;4.80;;;19.00;97.50;;;;;;5054131;28;20027;-68
2022/09/06 05:41:45;;;;;;;8.32;5.45;;;19.00;97.70;;;;;;5053746;28;20110;-69
2022/09/06 05:44:11;;;;;;;6.18;4.97;;;19.00;97.60;;;;;;5054026;28;20457;-69
2022/09/06 05:46:44;;;;;;;8.80;5.00;;;19.00;97.60;;;;;;5054018;28;20530;-68
2022/09/06 05:49:11;;;;;;;8.15;5.40;;;19.00;97.60;;;;;;5054082;28;20029;-68
2022/09/06 05:51:36;;;;;;;7.30;5.25;;;19.10;97.60;;;;;;5053840;28;20025;-69
2022/09/06 05:54:02;;;;;;;6.18;5.22;;;19.10;97.30;;;;;;5053073;28;20088;-68
2022/09/06 05:56:28;;;;;;;7.38;4.97;;;19.10;97.00;;;;;;5053625;28;20036;-69
2022/09/06 05:58:53;;;;;;;6.95;4.63;;;19.10;97.50;;;;;;5053560;28;20488;-68
2022/09/06 06:01:27;;;;;;;6.30;4.85;;;19.20;97.30;;;;;;5053746;28;20036;-68
2022/09/06 06:03:57;;;;;;;7.28;4.57;;;19.20;97.30;;;;;;5053297;28;20025;-69
2022/09/06 06:06:25;;;;;;;8.02;4.53;;;19.20;96.90;;;;;;5053563;28;20021;-68
2022/09/06 06:08:50;;;;;;;7.63;4.43;;;19.30;96.70;;;;;;5053167;28;20047;-68
2022/09/06 06:11:16;;;;;;;8.73;5.28;;;19.30;96.80;;;;;;5053243;28;20021;-69
2022/09/06 06:13:42;;;;;;;10.73;4.10;;;19.40;96.60;;;;;;5053418;28;20029;-68
2022/09/06 06:16:10;;;;;;;6.07;4.63;;;19.40;96.60;;;;;;5053113;28;20029;-68
2022/09/06 06:18:37;;;;;;;6.45;4.30;;;19.40;96.10;;;;;;5053146;28;20401;-68
2022/09/06 06:21:14;;;;;;;5.60;4.28;;;19.50;96.30;;;;;;5052662;28;20052;-68
2022/09/06 06:23:42;;;;;;;9.13;4.72;;;19.60;96.30;;;;;;5053439;28;20024;-68
2022/09/06 06:26:08;;;;;;;6.05;4.80;;;19.70;96.20;;;;;;5052661;28;20359;-68
2022/09/06 06:28:35;;;;;;;9.23;5.38;;;19.90;95.50;;;;;;5053217;28;20100;-68
2022/09/06 06:31:01;;;;;;;5.95;4.63;;;20.10;94.70;;;;;;5052354;28;20106;-68
2022/09/06 06:33:27;;;;;;;6.20;4.93;;;20.30;94.00;;;;;;5053277;28;20434;-68
2022/09/06 06:36:01;;;;;;;6.40;4.93;;;20.60;93.60;;;;;;5052711;28;20060;-68
2022/09/06 06:38:37;;;;;;;9.07;4.63;;;20.80;93.10;;;;;;5053293;28;20359;-67
2022/09/06 06:41:04;;;;;;;6.95;5.03;;;21.10;92.00;;;;;;5052516;28;20515;-68
2022/09/06 06:43:36;;;;;;;6.40;4.45;;;21.20;91.20;;;;;;5053308;28;20032;-68
2022/09/06 06:46:07;;;;;;;6.72;4.88;;;21.60;90.80;;;;;;5051777;28;20433;-68
2022/09/06 06:48:33;;;;;;;;;;;21.90;90.00;;;;;;5053290;28;20025;-68
2022/09/06 06:50:59;;;;;;;6.53;4.63;;;22.30;86.90;;;;;;5052528;28;19912;-68
2022/09/06 06:53:24;;;;;;;7.13;4.95;;;22.60;85.90;;;;;;5052645;28;20040;-68
2022/09/06 06:55:50;;;;;;;6.18;4.78;;;23.10;82.50;;;;;;5052160;28;20070;-68
2022/09/06 06:58:17;;;;;;;5.60;4.20;;;23.50;80.70;;;;;;5051374;28;20025;-68
2022/09/06 07:00:43;;;;;;;4.82;3.97;;;24.10;77.20;;;;;;5052710;28;20025;-68
2022/09/06 07:03:10;;;;;;;6.22;4.72;;;24.70;75.60;;;;;;5052389;28;20491;-68
2022/09/06 07:05:37;;;;;;;6.55;4.25;;;25.50;73.30;;;;;;5052674;28;20086;-69
2022/09/06 07:08:03;;;;;;;8.13;4.70;;;26.20;68.40;;;;;;5052638;28;20029;-69
2022/09/06 07:10:29;;;;;;;5.88;4.18;;;26.90;64.20;;;;;;5052770;28;20028;-68
2022/09/06 07:12:54;;;;;;;5.43;4.47;;;27.70;61.60;;;;;;5052054;28;20021;-69
2022/09/06 07:15:20;;;;;;;6.28;4.10;;;28.40;59.80;;;;;;5052564;28;20040;-68
2022/09/06 07:17:45;;;;;;;6.53;4.55;;;29.10;58.00;;;;;;5053186;28;20160;-68
2022/09/06 07:20:11;;;;;;;6.55;4.22;;;29.80;55.00;;;;;;5052480;28;20024;-69
2022/09/06 07:22:38;;;;;;;4.57;3.75;;;30.50;54.50;;;;;;5052543;28;20347;-68
2022/09/06 07:25:04;;;;;;;4.70;3.47;;;30.80;51.80;;;;;;5052053;28;20058;-69
2022/09/06 07:27:30;;;;;;;6.00;4.47;;;31.30;50.90;;;;;;5052341;28;20044;-68
2022/09/06 07:29:56;;;;;;;6.03;3.55;;;31.50;49.50;;;;;;5051838;28;20041;-69
2022/09/06 07:32:22;;;;;;;6.32;3.90;;;32.00;49.40;;;;;;5051114;28;20114;-68
2022/09/06 07:34:48;;;;;;;5.55;3.88;;;32.40;48.20;;;;;;5052423;28;20025;-68
2022/09/06 07:37:13;;;;;;;4.82;3.88;;;33.00;46.40;;;;;;5052030;28;20033;-68
2022/09/06 07:39:40;;;;;;;6.32;4.25;;;33.30;45.90;;;;;;5052374;28;20025;-68
2022/09/06 07:42:06;;;;;;;5.97;3.78;;;33.70;46.10;;;;;;5051844;28;20383;-68
2022/09/06 07:44:31;;;;;;;7.60;3.67;;;34.00;44.40;;;;;;5052485;28;20029;-68
2022/09/06 07:46:57;;;;;;;5.63;4.00;;;34.10;43.90;;;;;;5051956;28;20025;-68
2022/09/06 07:49:22;;;;;;;4.38;3.97;;;34.30;43.20;;;;;;5052611;28;20128;-69
2022/09/06 07:51:48;;;;;;;5.47;4.38;;;34.40;42.90;;;;;;5054668;28;20071;-69
2022/09/06 07:54:14;;;;;;;5.45;3.88;;;34.40;42.50;;;;;;5055707;28;20037;-69
2022/09/06 07:56:40;;;;;;;4.22;3.47;;;34.50;42.90;;;;;;5055846;28;20116;-68
2022/09/06 07:59:05;;;;;;;5.22;3.60;;;34.20;42.20;;;;;;5055302;28;20025;-68
2022/09/06 08:01:36;;;;;;;6.25;4.22;;;33.80;42.60;;;;;;5056000;28;20025;-68
2022/09/06 08:04:09;;;;;;;7.03;4.28;;;34.00;42.40;;;;;;5055467;28;20121;-69
2022/09/06 08:06:38;;;;;;;5.00;3.63;;;34.50;42.10;;;;;;5055964;28;20029;-69
2022/09/06 08:09:06;;;;;;;5.63;3.95;;;35.00;42.00;;;;;;5055244;28;20021;-68
2022/09/06 08:11:33;;;;;;;4.53;3.40;;;35.40;41.30;;;;;;5055619;28;20539;-69
2022/09/06 08:14:01;;;;;;;5.10;3.33;;;35.40;40.10;;;;;;5055614;28;20025;-69
2022/09/06 08:16:28;;;;;;;3.83;3.38;;;35.70;40.10;;;;;;5055333;28;20039;-69
2022/09/06 08:18:56;;;;;;;5.93;4.18;;;35.60;40.10;;;;;;5055703;28;20061;-69
2022/09/06 08:21:23;;;;;;;5.20;4.03;;;35.70;39.30;;;;;;5055847;28;20047;-67
2022/09/06 08:23:56;;;;;;;3.92;3.45;;;35.70;39.40;;;;;;5055647;28;20479;-68
2022/09/06 08:26:23;;;;;;;6.13;3.83;;;35.90;39.00;;;;;;5055610;28;20029;-69
2022/09/06 08:28:57;;;;;;;4.63;3.50;;;36.00;39.00;;;;;;5055522;28;20409;-68
2022/09/06 08:31:23;;;;;;;3.65;3.22;;;36.40;39.20;;;;;;5055526;28;20045;-69
2022/09/06 08:33:50;;;;;;;4.78;3.15;;;36.80;38.60;;;;;;5055380;28;20029;-69
2022/09/06 08:36:15;;;;;;;3.58;2.97;;;36.60;39.20;;;;;;5055040;28;20037;-67
2022/09/06 08:38:41;;;;;;;4.70;3.25;;;36.30;39.30;;;;;;5055482;28;20108;-69
2022/09/06 08:41:15;;;;;;;7.00;3.78;;;35.80;39.60;;;;;;5054976;28;20028;-68
2022/09/06 08:44:00;;;;;;;4.45;3.50;;;35.20;40.20;;;;;;5054821;28;20457;-69
2022/09/06 08:46:36;;;;;;;4.68;3.90;;;34.40;40.50;;;;;;5055282;28;20025;-69
2022/09/06 08:49:03;;;;;;;4.85;4.30;;;33.30;41.90;;;;;;5055029;28;20048;-70
2022/09/06 08:52:00;;;;;;;4.18;3.75;;;32.60;42.90;;;;;;5054728;28;20462;-69
2022/09/06 08:54:34;;;;;;;5.40;4.53;;;32.40;44.60;;;;;;5054881;28;20032;-67
2022/09/06 08:57:30;;;;;;;6.07;3.60;;;32.00;44.30;;;;;;5054380;28;20399;-67
2022/09/06 09:00:02;;;;;;;4.18;3.53;;;31.60;46.20;;;;;;5054860;28;20028;-67
2022/09/06 09:02:44;;;;;;;9.48;5.15;;;31.50;47.10;;;;;;5054429;28;20416;-67
2022/09/06 09:05:17;;;;;;;5.03;4.53;;;31.40;47.70;;;;;;5054371;28;20032;-68
2022/09/06 09:08:00;;;;;;;5.15;4.32;;;31.20;47.90;;;;;;5054473;28;20334;-68
2022/09/06 09:10:33;;;;;;;7.28;4.88;;;31.00;48.30;;;;;;5054400;28;20035;-68
2022/09/06 09:13:02;;;;;;;5.53;4.45;;;30.80;47.80;;;;;;5054405;28;20067;-70
2022/09/06 09:15:28;;;;;;;5.68;5.00;;;30.40;48.60;;;;;;5054500;28;20454;-68
2022/09/06 09:17:54;;;;;;;4.80;4.20;;;30.20;49.20;;;;;;5054598;28;20036;-68
2022/09/06 09:20:20;;;;;;;5.88;4.97;;;30.00;49.50;;;;;;5054177;28;20033;-69
2022/09/06 09:22:47;;;;;;;9.20;5.30;;;30.10;50.00;;;;;;5054124;28;20029;-68
2022/09/06 09:25:20;;;;;;;6.65;4.95;;;29.90;49.60;;;;;;5053948;28;20033;-69
2022/09/06 09:27:46;;;;;;;7.15;4.30;;;29.90;49.70;;;;;;5054371;28;20078;-68
2022/09/06 09:30:12;;;;;;;8.05;4.78;;;29.90;50.30;;;;;;5053579;28;20144;-69
2022/09/06 09:32:43;;;;;;;6.30;4.85;;;29.80;50.10;;;;;;5054341;28;20113;-68
2022/09/06 09:35:15;;;;;;;6.65;5.50;;;29.70;50.50;;;;;;5053660;28;20079;-68
2022/09/06 09:37:41;;;;;;;6.60;4.97;;;29.60;50.60;;;;;;5053943;28;20072;-68
2022/09/06 09:40:17;;;;;;;6.18;5.00;;;29.50;50.70;;;;;;5053568;28;20060;-68
2022/09/06 09:42:43;;;;;;;11.23;5.60;;;29.40;51.40;;;;;;5054269;28;20021;-67
2022/09/06 09:45:29;;;;;;;5.55;5.00;;;29.40;51.00;;;;;;5053656;28;20424;-67
2022/09/06 09:47:55;;;;;;;7.22;4.93;;;29.30;51.40;;;;;;5053977;28;20131;-68
2022/09/06 09:50:33;;;;;;;6.38;5.35;;;29.30;51.40;;;;;;5053540;28;20083;-68
2022/09/06 09:53:17;;;;;;;6.50;5.75;;;29.20;51.80;;;;;;5053885;28;20115;-68
2022/09/06 09:55:44;;;;;;;9.65;5.15;;;29.20;51.80;;;;;;5053599;28;20039;-69
2022/09/06 09:58:29;;;;;;;7.35;6.15;;;29.20;51.90;;;;;;5053269;28;20164;-69
2022/09/06 10:01:13;;;;;;;6.25;4.97;;;29.10;51.80;;;;;;5053663;28;20351;-69
2022/09/06 10:03:39;;;;;;;6.25;4.53;;;29.00;52.40;;;;;;5053587;28;20025;-68
2022/09/06 10:06:10;;;;;;;9.05;5.03;;;29.10;53.10;;;;;;5052886;28;20541;-68
2022/09/06 10:08:41;;;;;;;6.20;4.70;;;29.30;53.10;;;;;;5053667;28;20056;-68
2022/09/06 10:11:11;;;;;;;5.70;4.65;;;29.40;53.10;;;;;;5053230;28;20071;-68
2022/09/06 10:13:36;;;;;;;5.77;5.17;;;29.40;51.70;;;;;;5052750;28;20033;-68
2022/09/06 10:16:02;;;;;;;6.65;5.00;;;29.30;51.90;;;;;;5053245;28;20029;-68
2022/09/06 10:18:33;;;;;;;9.43;5.70;;;29.40;51.80;;;;;;5053110;28;20064;-68
2022/09/06 10:20:58;;;;;;;;;;;29.00;51.90;;;;;;5053841;28;20032;-68
2022/09/06 10:23:32;;;;;;;6.32;4.68;;;29.00;52.40;;;;;;5052245;28;19916;-68
2022/09/06 10:26:16;;;;;;;4.78;4.28;;;28.90;52.60;;;;;;5052048;28;20021;-67
2022/09/06 10:28:42;;;;;;;7.97;5.43;;;29.00;52.70;;;;;;5053020;28;20393;-68
2022/09/06 10:31:21;;;;;;;5.85;4.35;;;29.00;52.90;;;;;;5052683;28;20041;-68
2022/09/06 10:34:08;;;;;;;5.55;4.30;;;29.00;53.50;;;;;;5052821;28;20466;-68
2022/09/06 10:36:35;;;;;;;7.50;5.32;;;29.20;53.30;;;;;;5053104;28;20091;-68
2022/09/06 10:39:16;;;;;;;5.70;4.63;;;29.20;52.50;;;;;;5053139;28;20067;-68
2022/09/06 10:41:42;;;;;;;8.45;5.25;;;29.20;52.70;;;;;;5052951;28;20021;-69
2022/09/06 10:44:34;;;;;;;8.30;6.00;;;29.20;52.20;;;;;;5052628;28;20114;-70
2022/09/06 10:47:11;;;;;;;6.03;4.28;;;29.10;52.50;;;;;;5052592;28;20025;-68
2022/09/06 10:49:39;;;;;;;7.15;4.88;;;29.10;53.20;;;;;;5052927;28;20497;-69
2022/09/06 10:52:10;;;;;;;5.70;4.78;;;29.10;52.60;;;;;;5051237;28;20047;-68
2022/09/06 10:54:39;;;;;;;10.48;4.97;;;29.20;52.70;;;;;;5052748;28;20033;-70
2022/09/06 10:57:26;;;;;;;6.82;5.03;;;29.30;52.60;;;;;;5051727;28;20029;-71
2022/09/06 11:00:13;;;;;;;7.00;4.38;;;29.30;52.50;;;;;;5052558;28;20033;-70
2022/09/06 11:02:58;;;;;;;8.52;4.95;;;29.40;52.90;;;;;;5052409;28;20021;-70
2022/09/06 11:05:29;;;;;;;5.25;4.53;;;29.50;52.10;;;;;;5052294;28;20029;-70
2022/09/06 11:08:14;;;;;;;6.90;4.75;;;29.60;52.20;;;;;;5052656;28;20036;-70
2022/09/06 11:10:44;;;;;;;8.75;5.25;;;29.70;51.70;;;;;;5052689;28;20095;-70
2022/09/06 11:13:20;;;;;;;6.90;5.43;;;29.70;51.70;;;;;;5052135;28;20025;-70
2022/09/06 11:16:10;;;;;;;6.85;5.47;;;29.70;51.50;;;;;;5052468;28;20363;-71
2022/09/06 11:18:38;;;;;;;6.55;5.60;;;29.70;51.90;;;;;;5052440;28;20040;-70
2022/09/06 11:21:25;;;;;;;5.63;4.18;;;29.60;51.20;;;;;;5052178;28;20025;-70
2022/09/06 11:24:04;;;;;;;8.23;5.45;;;29.70;52.20;;;;;;5052394;28;20032;-71
2022/09/06 11:26:35;;;;;;;6.60;4.88;;;29.50;51.50;;;;;;5054183;28;20076;-70
2022/09/06 11:29:06;;;;;;;;;;;29.50;52.00;;;;;;5056961;28;20035;-71
2022/09/06 11:31:48;;;;;;;7.32;5.13;;;29.40;51.70;;;;;;5055807;28;19928;-70
2022/09/06 11:34:36;;;;;;;7.30;4.60;;;29.40;52.20;;;;;;5055885;28;20027;-71
2022/09/06 11:37:07;;;;;;;6.07;4.95;;;29.40;52.30;;;;;;5056076;28;20032;-70
2022/09/06 11:39:34;;;;;;;6.10;4.22;;;29.50;51.90;;;;;;5055649;28;20112;-70
2022/09/06 11:42:00;;;;;;;6.70;4.82;;;29.50;52.00;;;;;;5056278;28;20170;-70
2022/09/06 11:44:48;;;;;;;6.60;5.28;;;29.50;51.20;;;;;;5055491;28;20060;-71
2022/09/06 11:47:37;;;;;;;7.40;5.60;;;29.50;51.20;;;;;;5055909;28;20035;-70
2022/09/06 11:50:58;;;;;;;6.40;4.43;;;29.50;51.50;;;;;;5056403;28;20036;-70
2022/09/06 11:53:29;;;;;;;6.18;4.47;;;29.70;51.90;;;;;;5032806;28;20041;-69
2022/09/06 11:56:01;;;;;;;5.20;4.18;;;29.70;51.50;;;;;;5054901;28;20493;-71
2022/09/06 11:58:38;;;;;;;5.68;4.78;;;29.70;52.10;;;;;;5055537;28;20075;-70
2022/09/06 12:01:17;;;;;;;5.85;5.25;;;29.80;51.70;;;;;;5054814;28;20109;-71
2022/09/06 12:03:54;;;;;;;9.05;5.45;;;29.70;51.90;;;;;;5055724;28;20029;-70
2022/09/06 12:06:23;;;;;;;5.57;4.97;;;29.60;51.20;;;;;;5055549;28;20017;-70
2022/09/06 12:08:54;;;;;;;5.70;4.95;;;29.60;52.10;;;;;;5055753;28;20423;-71
2022/09/06 12:11:35;;;;;;;6.07;4.80;;;29.60;51.40;;;;;;5055512;28;20025;-70
2022/09/06 12:14:25;;;;;;;5.05;4.43;;;29.50;52.30;;;;;;5055889;28;20052;-72
2022/09/06 12:16:56;;;;;;;7.10;4.30;;;29.50;51.90;;;;;;5055267;28;20197;-70
2022/09/06 12:19:53;;;;;;;6.63;4.80;;;29.50;51.70;;;;;;5055013;28;20453;-71
2022/09/06 12:22:40;;;;;;;5.70;4.55;;;29.40;51.60;;;;;;5055170;28;20029;-72
2022/09/06 12:25:18;;;;;;;4.93;4.40;;;29.20;52.00;;;;;;5055564;28;20033;-70
2022/09/06 12:28:28;;;;;;;7.90;4.88;;;29.10;52.20;;;;;;5055270;28;20021;-71
2022/09/06 12:30:54;;;;;;;7.25;4.47;;;29.00;52.50;;;;;;5054246;28;20051;-70
2022/09/06 12:33:35;;;;;;;5.45;4.60;;;28.90;53.20;;;;;;5054983;28;20448;-70
2022/09/06 12:36:28;;;;;;;5.63;4.53;;;29.00;53.10;;;;;;5055325;28;20112;-71
2022/09/06 12:38:57;;;;;;;5.85;5.25;;;28.90;52.70;;;;;;5055510;28;20025;-70
2022/09/06 12:41:24;;;;;;;6.20;4.80;;;28.90;53.00;;;;;;5054709;28;20024;-70
2022/09/06 12:43:50;;;;;;;4.90;4.40;;;28.80;52.70;;;;;;5055187;28;20053;-69
2022/09/06 12:46:17;;;;;;;5.70;4.63;;;28.80;52.90;;;;;;5054521;28;20116;-70
2022/09/06 12:49:02;;;;;;;5.18;4.68;;;28.80;53.10;;;;;;5054929;28;20031;-69
2022/09/06 12:51:28;;;;;;;5.97;3.97;;;28.80;53.00;;;;;;5053948;28;20030;-69
2022/09/06 12:53:57;;;;;;;7.05;4.95;;;28.70;53.10;;;;;;5054905;28;20033;-70
2022/09/06 12:56:25;;;;;;;13.55;4.80;;;28.70;53.40;;;;;;5054250;28;20413;-70
2022/09/06 12:58:51;;;;;;;5.25;4.25;;;28.70;53.80;;;;;;5054744;28;20555;-70
2022/09/06 13:01:36;;;;;;;4.88;4.40;;;28.60;53.70;;;;;;5054347;28;20108;-72
2022/09/06 13:04:06;;;;;;;5.22;4.50;;;28.50;53.40;;;;;;5054789;28;20029;-71
2022/09/06 13:06:41;;;;;;;6.32;4.78;;;28.50;53.50;;;;;;5054448;28;20051;-70
2022/09/06 13:09:14;;;;;;;4.35;3.95;;;28.50;53.10;;;;;;5054894;28;20363;-71